sensor_id;sensor_type;location;lat;lon;timestamp;noise_LAeq;noise_LA_min;noise_LA_max;noise_LA01;noise_LA95
59691;Laerm;45592;52.094;4.330;2022-08-16T00:02:01;48.38;46.43;49.66;;
59691;Laerm;45592;52.094;4.330;2022-08-16T00:04:27;48.53;46.40;49.64;;
59691;Laerm;45592;52.094;4.330;2022-08-16T00:06:54;48.59;46.73;49.80;;
59691;Laerm;45592;52.094;4.330;2022-08-16T00:09:20;48.55;46.55;49.80;;
59691;Laerm;45592;52.094;4.330;2022-08-16T00:11:46;48.57;46.50;49.95;;
59691;Laerm;45592;52.094;4.330;2022-08-16T00:14:16;48.68;46.62;50.00;;
59691;Laerm;45592;52.094;4.330;2022-08-16T00:16:42;48.73;46.62;49.93;;
59691;Laerm;45592;52.094;4.330;2022-08-16T00:19:08;48.66;46.62;50.00;;
59691;Laerm;45592;52.094;4.330;2022-08-16T00:21:34;48.72;46.66;49.88;;
59691;Laerm;45592;52.094;4.330;2022-08-16T00:23:59;48.74;46.30;49.97;;
59691;Laerm;45592;52.094;4.330;2022-08-16T00:26:25;48.70;46.48;49.84;;
59691;Laerm;45592;52.094;4.330;2022-08-16T00:28:50;48.66;46.48;49.90;;
59691;Laerm;45592;52.094;4.330;2022-08-16T00:31:16;48.68;46.71;49.95;;
59691;Laerm;45592;52.094;4.330;2022-08-16T00:33:41;48.70;46.78;50.05;;
59691;Laerm;45592;52.094;4.330;2022-08-16T00:36:07;48.70;46.52;50.00;;
59691;Laerm;45592;52.094;4.330;2022-08-16T00:38:32;48.69;46.43;50.16;;
59691;Laerm;45592;52.094;4.330;2022-08-16T00:40:58;48.68;46.48;49.93;;
59691;Laerm;45592;52.094;4.330;2022-08-16T00:43:27;48.55;46.57;49.77;;
59691;Laerm;45592;52.094;4.330;2022-08-16T00:46:07;48.45;46.62;49.78;;
59691;Laerm;45592;52.094;4.330;2022-08-16T00:48:34;48.52;46.82;49.85;;
59691;Laerm;45592;52.094;4.330;2022-08-16T00:51:00;48.60;46.66;50.02;;
59691;Laerm;45592;52.094;4.330;2022-08-16T00:53:26;48.59;46.57;49.84;;
59691;Laerm;45592;52.094;4.330;2022-08-16T00:55:54;48.62;46.45;49.79;;
59691;Laerm;45592;52.094;4.330;2022-08-16T00:58:22;48.59;46.45;49.89;;
59691;Laerm;45592;52.094;4.330;2022-08-16T01:00:48;48.61;46.69;49.83;;
59691;Laerm;45592;52.094;4.330;2022-08-16T01:03:17;48.68;46.57;50.33;;
59691;Laerm;45592;52.094;4.330;2022-08-16T01:05:44;48.66;46.59;50.04;;
59691;Laerm;45592;52.094;4.330;2022-08-16T01:08:12;48.70;46.48;49.92;;
59691;Laerm;45592;52.094;4.330;2022-08-16T01:10:38;48.62;46.56;49.96;;
59691;Laerm;45592;52.094;4.330;2022-08-16T01:13:09;48.50;46.59;49.79;;
59691;Laerm;45592;52.094;4.330;2022-08-16T01:15:36;48.54;46.48;49.74;;
59691;Laerm;45592;52.094;4.330;2022-08-16T01:18:05;48.56;46.73;49.71;;
59691;Laerm;45592;52.094;4.330;2022-08-16T01:20:34;48.54;46.62;49.77;;
59691;Laerm;45592;52.094;4.330;2022-08-16T01:23:21;48.53;46.66;49.69;;
59691;Laerm;45592;52.094;4.330;2022-08-16T01:25:50;48.55;46.80;49.78;;
59691;Laerm;45592;52.094;4.330;2022-08-16T01:28:18;48.49;46.62;49.69;;
59691;Laerm;45592;52.094;4.330;2022-08-16T01:30:48;48.51;46.80;49.79;;
59691;Laerm;45592;52.094;4.330;2022-08-16T01:33:16;48.44;46.30;49.77;;
59691;Laerm;45592;52.094;4.330;2022-08-16T01:35:57;48.39;46.61;49.66;;
59691;Laerm;45592;52.094;4.330;2022-08-16T01:38:32;48.41;46.62;49.63;;
59691;Laerm;45592;52.094;4.330;2022-08-16T01:41:11;48.42;46.55;49.64;;
59691;Laerm;45592;52.094;4.330;2022-08-16T01:43:40;48.47;46.76;49.79;;
59691;Laerm;45592;52.094;4.330;2022-08-16T01:46:15;48.54;46.69;49.73;;
59691;Laerm;45592;52.094;4.330;2022-08-16T01:48:41;48.44;46.48;49.62;;
59691;Laerm;45592;52.094;4.330;2022-08-16T01:51:07;48.37;46.57;49.75;;
59691;Laerm;45592;52.094;4.330;2022-08-16T01:53:33;48.57;46.30;49.78;;
59691;Laerm;45592;52.094;4.330;2022-08-16T01:55:58;48.50;46.57;49.75;;
59691;Laerm;45592;52.094;4.330;2022-08-16T01:58:24;48.50;46.52;49.72;;
59691;Laerm;45592;52.094;4.330;2022-08-16T02:00:50;48.63;46.30;49.82;;
59691;Laerm;45592;52.094;4.330;2022-08-16T02:03:15;48.58;46.54;49.84;;
59691;Laerm;45592;52.094;4.330;2022-08-16T02:05:41;48.58;46.57;49.84;;
59691;Laerm;45592;52.094;4.330;2022-08-16T02:08:07;48.59;46.73;50.05;;
59691;Laerm;45592;52.094;4.330;2022-08-16T02:10:34;48.60;46.40;49.96;;
59691;Laerm;45592;52.094;4.330;2022-08-16T02:12:59;48.67;46.62;49.88;;
59691;Laerm;45592;52.094;4.330;2022-08-16T02:15:27;48.64;46.43;49.90;;
59691;Laerm;45592;52.094;4.330;2022-08-16T02:17:57;48.61;46.38;49.93;;
59691;Laerm;45592;52.094;4.330;2022-08-16T02:20:25;48.60;46.50;49.82;;
59691;Laerm;45592;52.094;4.330;2022-08-16T02:22:51;48.65;46.52;49.80;;
59691;Laerm;45592;52.094;4.330;2022-08-16T02:25:16;48.74;46.64;49.89;;
59691;Laerm;45592;52.094;4.330;2022-08-16T02:27:44;48.77;46.55;49.97;;
59691;Laerm;45592;52.094;4.330;2022-08-16T02:30:15;48.72;46.55;49.98;;
59691;Laerm;45592;52.094;4.330;2022-08-16T02:32:42;48.74;46.62;50.12;;
59691;Laerm;45592;52.094;4.330;2022-08-16T02:35:08;48.64;46.30;50.02;;
59691;Laerm;45592;52.094;4.330;2022-08-16T02:37:33;48.60;46.71;49.75;;
59691;Laerm;45592;52.094;4.330;2022-08-16T02:39:59;48.53;46.45;49.78;;
59691;Laerm;45592;52.094;4.330;2022-08-16T02:42:24;48.49;46.66;49.78;;
59691;Laerm;45592;52.094;4.330;2022-08-16T02:44:50;48.54;46.43;50.08;;
59691;Laerm;45592;52.094;4.330;2022-08-16T02:47:15;48.52;46.69;49.59;;
59691;Laerm;45592;52.094;4.330;2022-08-16T02:49:41;48.44;46.15;49.77;;
59691;Laerm;45592;52.094;4.330;2022-08-16T02:52:06;48.43;46.50;49.49;;
59691;Laerm;45592;52.094;4.330;2022-08-16T02:54:32;48.37;46.55;49.65;;
59691;Laerm;45592;52.094;4.330;2022-08-16T02:56:58;48.45;46.55;49.90;;
59691;Laerm;45592;52.094;4.330;2022-08-16T02:59:23;48.42;46.30;49.63;;
59691;Laerm;45592;52.094;4.330;2022-08-16T03:01:48;48.42;46.45;49.53;;
59691;Laerm;45592;52.094;4.330;2022-08-16T03:04:14;48.39;46.38;49.58;;
59691;Laerm;45592;52.094;4.330;2022-08-16T03:06:40;48.40;46.45;49.78;;
59691;Laerm;45592;52.094;4.330;2022-08-16T03:09:06;48.43;46.18;49.58;;
59691;Laerm;45592;52.094;4.330;2022-08-16T03:11:31;48.47;46.43;49.77;;
59691;Laerm;45592;52.094;4.330;2022-08-16T03:13:57;48.37;46.66;49.74;;
59691;Laerm;45592;52.094;4.330;2022-08-16T03:16:24;48.41;46.52;49.60;;
59691;Laerm;45592;52.094;4.330;2022-08-16T03:18:50;48.43;46.43;49.77;;
59691;Laerm;45592;52.094;4.330;2022-08-16T03:21:15;48.45;46.38;49.79;;
59691;Laerm;45592;52.094;4.330;2022-08-16T03:23:41;48.46;46.50;49.91;;
59691;Laerm;45592;52.094;4.330;2022-08-16T03:26:07;48.43;46.64;49.63;;
59691;Laerm;45592;52.094;4.330;2022-08-16T03:28:32;48.40;46.43;49.62;;
59691;Laerm;45592;52.094;4.330;2022-08-16T03:30:58;48.41;46.71;49.82;;
59691;Laerm;45592;52.094;4.330;2022-08-16T03:33:23;48.39;46.57;49.69;;
59691;Laerm;45592;52.094;4.330;2022-08-16T03:35:49;48.46;46.33;49.66;;
59691;Laerm;45592;52.094;4.330;2022-08-16T03:38:16;48.46;46.55;49.77;;
59691;Laerm;45592;52.094;4.330;2022-08-16T03:40:42;48.41;46.73;49.60;;
59691;Laerm;45592;52.094;4.330;2022-08-16T03:43:10;48.47;46.64;49.84;;
59691;Laerm;45592;52.094;4.330;2022-08-16T03:45:36;48.42;46.57;49.55;;
59691;Laerm;45592;52.094;4.330;2022-08-16T03:48:04;48.40;46.43;49.62;;
59691;Laerm;45592;52.094;4.330;2022-08-16T03:50:30;48.37;46.66;49.56;;
59691;Laerm;45592;52.094;4.330;2022-08-16T03:52:56;48.22;46.35;49.60;;
59691;Laerm;45592;52.094;4.330;2022-08-16T03:55:22;48.18;46.57;49.24;;
59691;Laerm;45592;52.094;4.330;2022-08-16T03:57:48;48.40;46.57;49.65;;
59691;Laerm;45592;52.094;4.330;2022-08-16T04:00:16;48.35;46.30;49.69;;
59691;Laerm;45592;52.094;4.330;2022-08-16T04:02:42;48.47;46.52;49.69;;
59691;Laerm;45592;52.094;4.330;2022-08-16T04:05:10;48.48;46.52;49.74;;
59691;Laerm;45592;52.094;4.330;2022-08-16T04:07:36;48.45;46.69;49.57;;
59691;Laerm;45592;52.094;4.330;2022-08-16T04:10:04;48.42;46.48;49.80;;
59691;Laerm;45592;52.094;4.330;2022-08-16T04:12:29;48.39;46.50;49.63;;
59691;Laerm;45592;52.094;4.330;2022-08-16T04:14:55;48.43;46.40;49.59;;
59691;Laerm;45592;52.094;4.330;2022-08-16T04:17:20;48.52;46.18;49.84;;
59691;Laerm;45592;52.094;4.330;2022-08-16T04:19:46;48.55;46.59;49.88;;
59691;Laerm;45592;52.094;4.330;2022-08-16T04:22:11;48.46;46.52;49.87;;
59691;Laerm;45592;52.094;4.330;2022-08-16T04:24:37;48.45;46.50;49.70;;
59691;Laerm;45592;52.094;4.330;2022-08-16T04:27:03;48.50;46.43;49.90;;
59691;Laerm;45592;52.094;4.330;2022-08-16T04:29:29;48.50;46.64;49.75;;
59691;Laerm;45592;52.094;4.330;2022-08-16T04:31:55;48.45;46.55;49.70;;
59691;Laerm;45592;52.094;4.330;2022-08-16T04:34:20;48.53;46.55;49.72;;
59691;Laerm;45592;52.094;4.330;2022-08-16T04:36:47;48.47;46.52;49.64;;
59691;Laerm;45592;52.094;4.330;2022-08-16T04:39:12;48.48;46.59;49.73;;
59691;Laerm;45592;52.094;4.330;2022-08-16T04:41:37;48.50;46.52;49.72;;
59691;Laerm;45592;52.094;4.330;2022-08-16T04:44:03;48.49;46.57;49.63;;
59691;Laerm;45592;52.094;4.330;2022-08-16T04:46:29;48.53;46.64;49.77;;
59691;Laerm;45592;52.094;4.330;2022-08-16T04:48:54;48.55;46.33;49.67;;
59691;Laerm;45592;52.094;4.330;2022-08-16T04:51:20;48.39;46.28;49.62;;
59691;Laerm;45592;52.094;4.330;2022-08-16T04:53:46;48.35;46.43;49.69;;
59691;Laerm;45592;52.094;4.330;2022-08-16T04:56:11;48.39;46.73;49.60;;
59691;Laerm;45592;52.094;4.330;2022-08-16T04:58:37;48.57;46.69;49.92;;
59691;Laerm;45592;52.094;4.330;2022-08-16T05:01:02;48.53;46.55;49.69;;
59691;Laerm;45592;52.094;4.330;2022-08-16T05:03:28;48.56;46.71;49.88;;
59691;Laerm;45592;52.094;4.330;2022-08-16T05:05:53;48.57;46.76;49.78;;
59691;Laerm;45592;52.094;4.330;2022-08-16T05:08:19;48.45;46.40;49.63;;
59691;Laerm;45592;52.094;4.330;2022-08-16T05:10:44;48.55;46.43;49.82;;
59691;Laerm;45592;52.094;4.330;2022-08-16T05:13:10;48.51;46.52;49.81;;
59691;Laerm;45592;52.094;4.330;2022-08-16T05:15:35;48.56;46.62;49.69;;
59691;Laerm;45592;52.094;4.330;2022-08-16T05:18:02;48.49;46.48;49.69;;
59691;Laerm;45592;52.094;4.330;2022-08-16T05:20:28;48.39;46.40;49.50;;
59691;Laerm;45592;52.094;4.330;2022-08-16T05:22:53;48.38;46.50;49.65;;
59691;Laerm;45592;52.094;4.330;2022-08-16T05:25:19;48.36;46.40;49.52;;
59691;Laerm;45592;52.094;4.330;2022-08-16T05:27:45;48.46;46.28;49.85;;
59691;Laerm;45592;52.094;4.330;2022-08-16T05:30:12;48.50;46.40;49.65;;
59691;Laerm;45592;52.094;4.330;2022-08-16T05:32:39;48.53;46.38;50.00;;
59691;Laerm;45592;52.094;4.330;2022-08-16T05:35:06;48.51;46.69;49.59;;
59691;Laerm;45592;52.094;4.330;2022-08-16T05:37:34;48.53;46.76;49.91;;
59691;Laerm;45592;52.094;4.330;2022-08-16T05:39:59;48.46;46.40;49.84;;
59691;Laerm;45592;52.094;4.330;2022-08-16T05:42:25;48.41;46.30;49.65;;
59691;Laerm;45592;52.094;4.330;2022-08-16T05:44:50;48.44;46.62;49.87;;
59691;Laerm;45592;52.094;4.330;2022-08-16T05:47:16;48.47;46.43;49.51;;
59691;Laerm;45592;52.094;4.330;2022-08-16T05:49:41;48.47;46.64;49.71;;
59691;Laerm;45592;52.094;4.330;2022-08-16T05:52:09;48.49;46.50;49.70;;
59691;Laerm;45592;52.094;4.330;2022-08-16T05:54:34;48.50;46.52;49.94;;
59691;Laerm;45592;52.094;4.330;2022-08-16T05:57:00;48.47;46.40;49.65;;
59691;Laerm;45592;52.094;4.330;2022-08-16T05:59:25;48.41;46.50;49.73;;
59691;Laerm;45592;52.094;4.330;2022-08-16T06:01:51;48.48;46.43;49.63;;
59691;Laerm;45592;52.094;4.330;2022-08-16T06:04:17;48.32;46.20;49.67;;
59691;Laerm;45592;52.094;4.330;2022-08-16T06:06:43;48.17;46.57;49.44;;
59691;Laerm;45592;52.094;4.330;2022-08-16T06:09:13;48.14;46.45;49.24;;
59691;Laerm;45592;52.094;4.330;2022-08-16T06:11:39;48.12;46.57;49.30;;
59691;Laerm;45592;52.094;4.330;2022-08-16T06:14:05;48.10;46.73;49.21;;
59691;Laerm;45592;52.094;4.330;2022-08-16T06:16:30;48.07;46.30;49.21;;
59691;Laerm;45592;52.094;4.330;2022-08-16T06:18:57;48.17;46.38;49.50;;
59691;Laerm;45592;52.094;4.330;2022-08-16T06:21:22;48.34;46.57;49.66;;
59691;Laerm;45592;52.094;4.330;2022-08-16T06:23:48;48.33;46.33;49.62;;
59691;Laerm;45592;52.094;4.330;2022-08-16T06:26:13;48.30;46.43;49.55;;
59691;Laerm;45592;52.094;4.330;2022-08-16T06:28:39;48.34;46.66;49.64;;
59691;Laerm;45592;52.094;4.330;2022-08-16T06:31:08;48.20;46.43;49.32;;
59691;Laerm;45592;52.094;4.330;2022-08-16T06:33:33;48.19;46.67;49.34;;
59691;Laerm;45592;52.094;4.330;2022-08-16T06:35:59;48.25;46.64;49.39;;
59691;Laerm;45592;52.094;4.330;2022-08-16T06:38:25;48.17;46.38;49.44;;
59691;Laerm;45592;52.094;4.330;2022-08-16T06:40:50;48.10;46.62;49.20;;
59691;Laerm;45592;52.094;4.330;2022-08-16T06:43:16;48.10;46.30;49.30;;
59691;Laerm;45592;52.094;4.330;2022-08-16T06:45:43;48.04;46.50;49.23;;
59691;Laerm;45592;52.094;4.330;2022-08-16T06:48:09;48.05;46.50;49.18;;
59691;Laerm;45592;52.094;4.330;2022-08-16T06:50:35;47.95;46.45;49.06;;
59691;Laerm;45592;52.094;4.330;2022-08-16T06:53:01;47.95;46.35;49.16;;
59691;Laerm;45592;52.094;4.330;2022-08-16T06:55:28;47.94;46.59;49.02;;
59691;Laerm;45592;52.094;4.330;2022-08-16T06:57:54;47.99;46.50;49.11;;
59691;Laerm;45592;52.094;4.330;2022-08-16T07:00:20;48.04;46.71;49.32;;
59691;Laerm;45592;52.094;4.330;2022-08-16T07:02:45;48.00;46.38;49.35;;
59691;Laerm;45592;52.094;4.330;2022-08-16T07:05:13;47.96;46.82;49.58;;
59691;Laerm;45592;52.094;4.330;2022-08-16T07:07:39;48.01;46.43;49.28;;
59691;Laerm;45592;52.094;4.330;2022-08-16T07:10:06;47.93;46.55;49.11;;
59691;Laerm;45592;52.094;4.330;2022-08-16T07:12:32;47.92;46.55;48.99;;
59691;Laerm;45592;52.094;4.330;2022-08-16T07:14:58;47.80;46.55;48.85;;
59691;Laerm;45592;52.094;4.330;2022-08-16T07:17:26;47.83;46.59;49.03;;
59691;Laerm;45592;52.094;4.330;2022-08-16T07:19:52;48.06;46.59;49.33;;
59691;Laerm;45592;52.094;4.330;2022-08-16T07:22:18;47.96;46.59;49.03;;
59691;Laerm;45592;52.094;4.330;2022-08-16T07:24:43;47.93;46.71;49.00;;
59691;Laerm;45592;52.094;4.330;2022-08-16T07:27:10;48.00;46.40;49.20;;
59691;Laerm;45592;52.094;4.330;2022-08-16T07:29:35;47.91;46.66;49.11;;
59691;Laerm;45592;52.094;4.330;2022-08-16T07:32:01;47.88;46.52;49.14;;
59691;Laerm;45592;52.094;4.330;2022-08-16T07:34:27;47.83;46.38;49.06;;
59691;Laerm;45592;52.094;4.330;2022-08-16T07:36:56;47.80;46.33;48.78;;
59691;Laerm;45592;52.094;4.330;2022-08-16T07:39:24;47.89;46.28;49.02;;
59691;Laerm;45592;52.094;4.330;2022-08-16T07:41:49;47.93;46.66;49.14;;
59691;Laerm;45592;52.094;4.330;2022-08-16T07:44:15;47.79;46.52;48.85;;
59691;Laerm;45592;52.094;4.330;2022-08-16T07:46:40;47.82;46.48;49.04;;
59691;Laerm;45592;52.094;4.330;2022-08-16T07:49:06;47.95;46.43;49.33;;
59691;Laerm;45592;52.094;4.330;2022-08-16T07:51:32;47.99;46.63;49.70;;
59691;Laerm;45592;52.094;4.330;2022-08-16T07:54:01;48.03;46.64;49.11;;
59691;Laerm;45592;52.094;4.330;2022-08-16T07:56:28;48.01;46.59;49.11;;
59691;Laerm;45592;52.094;4.330;2022-08-16T07:58:54;48.04;46.55;49.29;;
59691;Laerm;45592;52.094;4.330;2022-08-16T08:01:21;47.93;46.66;49.15;;
59691;Laerm;45592;52.094;4.330;2022-08-16T08:03:49;47.95;46.52;49.12;;
59691;Laerm;45592;52.094;4.330;2022-08-16T08:06:16;48.09;46.80;49.44;;
59691;Laerm;45592;52.094;4.330;2022-08-16T08:08:41;48.16;46.64;49.51;;
59691;Laerm;45592;52.094;4.330;2022-08-16T08:11:07;48.04;46.35;49.20;;
59691;Laerm;45592;52.094;4.330;2022-08-16T08:13:33;47.82;46.50;48.96;;
59691;Laerm;45592;52.094;4.330;2022-08-16T08:15:59;47.83;46.40;49.07;;
59691;Laerm;45592;52.094;4.330;2022-08-16T08:18:24;47.85;46.38;48.96;;
59691;Laerm;45592;52.094;4.330;2022-08-16T08:20:49;47.90;46.35;49.10;;
59691;Laerm;45592;52.094;4.330;2022-08-16T08:23:16;47.87;46.35;49.00;;
59691;Laerm;45592;52.094;4.330;2022-08-16T08:25:43;47.81;46.45;49.06;;
59691;Laerm;45592;52.094;4.330;2022-08-16T08:28:13;47.80;46.55;49.02;;
59691;Laerm;45592;52.094;4.330;2022-08-16T08:30:41;47.84;46.62;49.04;;
59691;Laerm;45592;52.094;4.330;2022-08-16T08:33:07;47.87;46.57;49.00;;
59691;Laerm;45592;52.094;4.330;2022-08-16T08:35:33;47.83;46.45;48.88;;
59691;Laerm;45592;52.094;4.330;2022-08-16T08:37:59;47.77;46.33;48.94;;
59691;Laerm;45592;52.094;4.330;2022-08-16T08:40:27;47.90;46.57;49.07;;
59691;Laerm;45592;52.094;4.330;2022-08-16T08:42:57;47.82;46.38;49.03;;
59691;Laerm;45592;52.094;4.330;2022-08-16T08:45:23;47.93;46.64;49.00;;
59691;Laerm;45592;52.094;4.330;2022-08-16T08:47:49;47.98;46.71;49.12;;
59691;Laerm;45592;52.094;4.330;2022-08-16T08:50:15;48.01;46.55;49.16;;
59691;Laerm;45592;52.094;4.330;2022-08-16T08:52:43;47.92;46.29;49.19;;
59691;Laerm;45592;52.094;4.330;2022-08-16T08:55:11;47.88;46.55;49.00;;
59691;Laerm;45592;52.094;4.330;2022-08-16T08:57:39;47.90;46.50;49.81;;
59691;Laerm;45592;52.094;4.330;2022-08-16T09:00:05;47.98;46.40;49.07;;
59691;Laerm;45592;52.094;4.330;2022-08-16T09:02:32;47.66;46.28;48.92;;
59691;Laerm;45592;52.094;4.330;2022-08-16T09:04:57;47.70;46.25;48.94;;
59691;Laerm;45592;52.094;4.330;2022-08-16T09:07:23;47.78;46.10;49.19;;
59691;Laerm;45592;52.094;4.330;2022-08-16T09:09:48;47.76;46.38;49.06;;
59691;Laerm;45592;52.094;4.330;2022-08-16T09:12:14;47.77;46.38;48.82;;
59691;Laerm;45592;52.094;4.330;2022-08-16T09:14:42;47.80;46.35;49.25;;
59691;Laerm;45592;52.094;4.330;2022-08-16T09:17:10;47.67;46.30;48.88;;
59691;Laerm;45592;52.094;4.330;2022-08-16T09:19:35;47.87;46.33;49.30;;
59691;Laerm;45592;52.094;4.330;2022-08-16T09:22:02;48.13;46.52;49.36;;
59691;Laerm;45592;52.094;4.330;2022-08-16T09:24:29;47.83;46.64;49.03;;
59691;Laerm;45592;52.094;4.330;2022-08-16T09:26:55;47.64;46.05;48.88;;
59691;Laerm;45592;52.094;4.330;2022-08-16T09:29:30;47.60;46.45;48.76;;
59691;Laerm;45592;52.094;4.330;2022-08-16T09:31:57;47.69;46.15;49.03;;
59691;Laerm;45592;52.094;4.330;2022-08-16T09:34:26;47.70;46.43;48.91;;
59691;Laerm;45592;52.094;4.330;2022-08-16T09:36:51;47.59;46.30;48.83;;
59691;Laerm;45592;52.094;4.330;2022-08-16T09:39:17;47.71;46.30;48.91;;
59691;Laerm;45592;52.094;4.330;2022-08-16T09:41:44;47.68;46.18;49.00;;
59691;Laerm;45592;52.094;4.330;2022-08-16T09:44:09;47.72;46.13;49.18;;
59691;Laerm;45592;52.094;4.330;2022-08-16T09:46:34;47.56;46.10;49.20;;
59691;Laerm;45592;52.094;4.330;2022-08-16T09:49:00;47.70;46.20;48.99;;
59691;Laerm;45592;52.094;4.330;2022-08-16T09:51:26;47.62;46.15;49.47;;
59691;Laerm;45592;52.094;4.330;2022-08-16T09:53:53;47.73;46.43;49.25;;
59691;Laerm;45592;52.094;4.330;2022-08-16T09:56:28;47.82;46.28;49.18;;
59691;Laerm;45592;52.094;4.330;2022-08-16T09:58:55;47.50;46.07;48.63;;
59691;Laerm;45592;52.094;4.330;2022-08-16T10:01:21;47.51;46.30;48.94;;
59691;Laerm;45592;52.094;4.330;2022-08-16T10:03:46;47.68;46.43;49.34;;
59691;Laerm;45592;52.094;4.330;2022-08-16T10:06:12;47.73;46.30;49.16;;
59691;Laerm;45592;52.094;4.330;2022-08-16T10:08:37;47.59;46.40;48.87;;
59691;Laerm;45592;52.094;4.330;2022-08-16T10:11:02;47.58;46.38;48.87;;
59691;Laerm;45592;52.094;4.330;2022-08-16T10:13:46;47.51;46.20;48.74;;
59691;Laerm;45592;52.094;4.330;2022-08-16T10:16:12;47.48;46.18;48.77;;
59691;Laerm;45592;52.094;4.330;2022-08-16T10:18:40;47.88;46.50;49.46;;
59691;Laerm;45592;52.094;4.330;2022-08-16T10:21:06;47.66;46.43;49.07;;
59691;Laerm;45592;52.094;4.330;2022-08-16T10:23:31;47.62;46.30;48.80;;
59691;Laerm;45592;52.094;4.330;2022-08-16T10:25:57;47.65;46.25;48.87;;
59691;Laerm;45592;52.094;4.330;2022-08-16T10:28:24;47.69;46.13;49.03;;
59691;Laerm;45592;52.094;4.330;2022-08-16T10:30:50;47.98;46.40;49.29;;
59691;Laerm;45592;52.094;4.330;2022-08-16T10:33:15;47.76;46.48;49.10;;
59691;Laerm;45592;52.094;4.330;2022-08-16T10:35:42;47.87;46.52;49.43;;
59691;Laerm;45592;52.094;4.330;2022-08-16T10:38:08;47.58;46.13;49.38;;
59691;Laerm;45592;52.094;4.330;2022-08-16T10:40:34;47.17;46.02;48.90;;
59691;Laerm;45592;52.094;4.330;2022-08-16T10:43:00;47.13;46.05;49.16;;
59691;Laerm;45592;52.094;4.330;2022-08-16T10:45:28;47.18;45.72;49.11;;
59691;Laerm;45592;52.094;4.330;2022-08-16T10:47:54;47.19;46.13;48.67;;
59691;Laerm;45592;52.094;4.330;2022-08-16T10:50:20;47.11;46.01;48.57;;
59691;Laerm;45592;52.094;4.330;2022-08-16T10:52:45;47.16;45.97;48.54;;
59691;Laerm;45592;52.094;4.330;2022-08-16T10:55:11;47.13;45.77;48.63;;
59691;Laerm;45592;52.094;4.330;2022-08-16T10:57:38;47.13;45.94;48.99;;
59691;Laerm;45592;52.094;4.330;2022-08-16T11:00:08;47.16;45.72;48.69;;
59691;Laerm;45592;52.094;4.330;2022-08-16T11:02:38;47.14;45.97;48.66;;
59691;Laerm;45592;52.094;4.330;2022-08-16T11:05:05;47.14;45.99;48.49;;
59691;Laerm;45592;52.094;4.330;2022-08-16T11:07:42;47.19;45.86;48.77;;
59691;Laerm;45592;52.094;4.330;2022-08-16T11:10:08;47.25;46.05;48.54;;
59691;Laerm;45592;52.094;4.330;2022-08-16T11:12:34;47.25;46.18;48.96;;
59691;Laerm;45592;52.094;4.330;2022-08-16T11:14:59;47.24;45.99;48.52;;
59691;Laerm;45592;52.094;4.330;2022-08-16T11:17:24;47.24;46.07;49.28;;
59691;Laerm;45592;52.094;4.330;2022-08-16T11:19:51;47.14;45.97;49.29;;
59691;Laerm;45592;52.094;4.330;2022-08-16T11:22:16;47.59;46.13;49.64;;
59691;Laerm;45592;52.094;4.330;2022-08-16T11:24:42;47.89;46.33;49.82;;
59691;Laerm;45592;52.094;4.330;2022-08-16T11:27:13;47.32;46.03;50.31;;
59691;Laerm;45592;52.094;4.330;2022-08-16T11:29:39;47.39;45.99;50.17;;
59691;Laerm;45592;52.094;4.330;2022-08-16T11:32:04;47.41;46.15;49.56;;
59691;Laerm;45592;52.094;4.330;2022-08-16T11:34:30;47.38;46.10;49.79;;
59691;Laerm;45592;52.094;4.330;2022-08-16T11:36:57;47.45;46.07;51.00;;
59691;Laerm;45592;52.094;4.330;2022-08-16T11:39:22;47.37;45.86;49.16;;
59691;Laerm;45592;52.094;4.330;2022-08-16T11:41:48;48.00;45.99;50.74;;
59691;Laerm;45592;52.094;4.330;2022-08-16T11:44:13;47.75;46.02;50.21;;
59691;Laerm;45592;52.094;4.330;2022-08-16T11:46:39;47.56;45.91;50.11;;
59691;Laerm;45592;52.094;4.330;2022-08-16T11:49:05;47.52;45.96;50.20;;
59691;Laerm;45592;52.094;4.330;2022-08-16T11:51:30;47.81;45.69;50.06;;
59691;Laerm;45592;52.094;4.330;2022-08-16T11:53:56;47.42;46.02;50.11;;
59691;Laerm;45592;52.094;4.330;2022-08-16T11:56:22;47.88;45.75;50.77;;
59691;Laerm;45592;52.094;4.330;2022-08-16T11:58:47;47.37;45.57;49.70;;
59691;Laerm;45592;52.094;4.330;2022-08-16T12:01:13;47.84;45.89;50.60;;
59691;Laerm;45592;52.094;4.330;2022-08-16T12:03:40;47.38;45.94;49.56;;
59691;Laerm;45592;52.094;4.330;2022-08-16T12:06:10;47.08;45.80;48.77;;
59691;Laerm;45592;52.094;4.330;2022-08-16T12:08:36;47.03;45.91;48.61;;
59691;Laerm;45592;52.094;4.330;2022-08-16T12:11:02;47.08;45.86;49.32;;
59691;Laerm;45592;52.094;4.330;2022-08-16T12:13:29;47.02;45.89;48.74;;
59691;Laerm;45592;52.094;4.330;2022-08-16T12:15:55;47.10;45.77;48.67;;
59691;Laerm;45592;52.094;4.330;2022-08-16T12:18:20;47.04;45.60;48.80;;
59691;Laerm;45592;52.094;4.330;2022-08-16T12:20:46;47.11;45.69;48.46;;
59691;Laerm;45592;52.094;4.330;2022-08-16T12:23:11;47.14;46.07;48.69;;
59691;Laerm;45592;52.094;4.330;2022-08-16T12:25:37;47.05;45.89;48.51;;
59691;Laerm;45592;52.094;4.330;2022-08-16T12:28:05;47.08;45.89;48.67;;
59691;Laerm;45592;52.094;4.330;2022-08-16T12:30:33;47.07;45.91;48.76;;
59691;Laerm;45592;52.094;4.330;2022-08-16T12:33:00;47.19;46.10;48.92;;
59691;Laerm;45592;52.094;4.330;2022-08-16T12:35:27;47.12;46.07;48.55;;
59691;Laerm;45592;52.094;4.330;2022-08-16T12:37:55;47.12;45.94;48.67;;
59691;Laerm;45592;52.094;4.330;2022-08-16T12:40:24;47.20;45.80;49.11;;
59691;Laerm;45592;52.094;4.330;2022-08-16T12:42:52;47.71;46.48;49.52;;
59691;Laerm;45592;52.094;4.330;2022-08-16T12:45:20;47.71;46.55;49.28;;
59691;Laerm;45592;52.094;4.330;2022-08-16T12:47:46;47.12;46.02;48.81;;
59691;Laerm;45592;52.094;4.330;2022-08-16T12:50:31;47.11;45.94;48.74;;
59691;Laerm;45592;52.094;4.330;2022-08-16T12:52:56;47.14;45.94;48.64;;
59691;Laerm;45592;52.094;4.330;2022-08-16T12:55:22;47.15;46.07;48.76;;
59691;Laerm;45592;52.094;4.330;2022-08-16T12:57:51;47.10;45.89;48.52;;
59691;Laerm;45592;52.094;4.330;2022-08-16T13:00:17;47.14;45.75;48.74;;
59691;Laerm;45592;52.094;4.330;2022-08-16T13:02:43;47.12;45.86;48.78;;
59691;Laerm;45592;52.094;4.330;2022-08-16T13:05:09;47.18;45.80;49.02;;
59691;Laerm;45592;52.094;4.330;2022-08-16T13:07:39;47.10;45.94;48.73;;
59691;Laerm;45592;52.094;4.330;2022-08-16T13:10:09;47.11;46.05;49.04;;
59691;Laerm;45592;52.094;4.330;2022-08-16T13:12:43;47.14;45.89;48.77;;
59691;Laerm;45592;52.094;4.330;2022-08-16T13:15:15;47.12;45.94;48.48;;
59691;Laerm;45592;52.094;4.330;2022-08-16T13:17:41;47.11;46.02;48.60;;
59691;Laerm;45592;52.094;4.330;2022-08-16T13:20:11;47.12;46.05;48.96;;
59691;Laerm;45592;52.094;4.330;2022-08-16T13:22:42;47.13;45.94;49.03;;
59691;Laerm;45592;52.094;4.330;2022-08-16T13:25:08;47.14;45.77;48.77;;
59691;Laerm;45592;52.094;4.330;2022-08-16T13:27:33;47.61;46.23;49.39;;
59691;Laerm;45592;52.094;4.330;2022-08-16T13:29:59;47.43;45.94;49.46;;
59691;Laerm;45592;52.094;4.330;2022-08-16T13:32:24;47.21;46.05;48.80;;
59691;Laerm;45592;52.094;4.330;2022-08-16T13:34:50;47.13;45.97;48.78;;
59691;Laerm;45592;52.094;4.330;2022-08-16T13:37:15;47.16;46.13;48.73;;
59691;Laerm;45592;52.094;4.330;2022-08-16T13:39:41;47.18;45.94;48.90;;
59691;Laerm;45592;52.094;4.330;2022-08-16T13:42:10;47.16;45.99;48.85;;